Time;durP1;ratioP1;P1;durP2;ratioP2;P2;SDS_P1;SDS_P2;PMS_P1;PMS_P2;Temp;Humidity;BMP_temperature;BMP_pressure;BME280_temperature;BME280_humidity;BME280_pressure;Samples;Min_cycle;Max_cycle;Signal;HPM_P1;HPM_P2
2022/07/22 00:01:33;;;;;;;5.05;3.63;;;;;;;18.88;85.38;93274.78;5109129;28;20035;-76
2022/07/22 00:04:01;;;;;;;6.38;3.90;;;;;;;18.81;85.70;93276.88;5109192;28;20047;-76
2022/07/22 00:06:30;;;;;;;8.05;4.00;;;;;;;18.81;85.40;93269.06;5109311;28;20043;-76
2022/07/22 00:08:57;;;;;;;8.93;4.22;;;;;;;18.67;86.26;93255.78;5109353;28;20460;-76
2022/07/22 00:11:24;;;;;;;6.75;3.80;;;;;;;18.73;86.33;93278.16;5109074;28;20097;-76
2022/07/22 00:13:51;;;;;;;9.38;4.07;;;;;;;18.71;86.59;93280.25;5108818;28;20047;-76
2022/07/22 00:16:18;;;;;;;6.55;4.05;;;;;;;18.69;86.58;93272.72;5109100;28;20052;-76
2022/07/22 00:18:44;;;;;;;6.30;3.58;;;;;;;18.71;86.80;93269.84;5108501;28;20100;-76
2022/07/22 00:21:11;;;;;;;6.72;3.67;;;;;;;18.71;86.56;93277.66;5108611;28;20093;-76
2022/07/22 00:23:39;;;;;;;8.43;4.28;;;;;;;18.67;86.23;93274.78;5108786;28;20495;-76
2022/07/22 00:26:06;;;;;;;7.72;3.75;;;;;;;18.68;86.76;93280.75;5108624;28;20404;-76
2022/07/22 00:28:33;;;;;;;7.60;4.18;;;;;;;18.65;87.37;93276.09;5110851;28;20908;-76
2022/07/22 00:30:59;;;;;;;6.28;4.20;;;;;;;18.62;87.69;93279.19;5112965;28;20088;-75
2022/07/22 00:33:26;;;;;;;5.65;3.88;;;;;;;18.60;86.45;93274.25;5112920;28;20044;-76
2022/07/22 00:35:53;;;;;;;6.18;3.80;;;;;;;18.56;87.30;93278.41;5113001;28;20064;-77
2022/07/22 00:38:20;;;;;;;6.20;3.97;;;;;;;18.48;87.51;93284.91;5112589;28;20319;-76
2022/07/22 00:40:48;;;;;;;9.13;4.20;;;;;;;18.50;87.18;93277.63;5112348;28;20052;-76
2022/07/22 00:43:15;;;;;;;7.18;4.32;;;;;;;18.46;88.55;93275.78;5118193;27;20104;-76
2022/07/22 00:45:41;;;;;;;10.63;4.65;;;;;;;18.41;88.79;93274.75;5116971;27;20104;-76
2022/07/22 00:48:08;;;;;;;7.10;3.97;;;;;;;18.18;88.01;93236.22;5133765;27;20047;-77
2022/07/22 00:50:35;;;;;;;8.23;4.65;;;;;;;18.36;88.14;93261.72;5134071;27;20043;-75
2022/07/22 00:53:02;;;;;;;10.73;4.25;;;;;;;18.29;88.04;93256.75;5133502;27;20130;-75
2022/07/22 00:55:29;;;;;;;7.05;3.90;;;;;;;18.25;88.37;93263.53;5133808;27;20092;-75
2022/07/22 00:57:57;;;;;;;8.82;4.15;;;;;;;18.22;88.66;93265.84;5132841;27;20100;-76
2022/07/22 01:00:24;;;;;;;5.82;3.83;;;;;;;18.21;88.76;93261.69;5132145;27;20099;-76
2022/07/22 01:02:51;;;;;;;7.63;3.85;;;;;;;18.14;89.03;93267.09;5132961;27;20511;-75
2022/07/22 01:05:18;;;;;;;6.80;3.95;;;;;;;18.10;89.36;93260.88;5133584;27;20563;-76
2022/07/22 01:07:45;;;;;;;6.47;4.00;;;;;;;18.06;89.62;93270.19;5132158;27;20212;-75
2022/07/22 01:10:14;;;;;;;7.32;4.13;;;;;;;18.05;89.63;93268.63;5132866;27;20043;-75
2022/07/22 01:12:41;;;;;;;6.70;4.57;;;;;;;17.97;89.56;93269.91;5132377;27;20112;-76
2022/07/22 01:15:10;;;;;;;6.43;4.65;;;;;;;17.95;89.50;93277.94;5132129;27;20101;-76
2022/07/22 01:17:37;;;;;;;6.53;4.38;;;;;;;17.95;89.50;93274.56;5132402;27;20047;-76
2022/07/22 01:20:06;;;;;;;5.50;3.60;;;;;;;17.90;89.75;93272.72;5132551;27;20433;-76
2022/07/22 01:22:33;;;;;;;6.00;3.90;;;;;;;17.83;90.46;93277.38;5132412;27;20074;-76
2022/07/22 01:25:00;;;;;;;5.70;4.13;;;;;;;17.73;90.30;93276.28;5132249;27;20452;-76
2022/07/22 01:27:27;;;;;;;7.47;4.05;;;;;;;17.74;90.76;93272.63;5133016;27;20063;-75
2022/07/22 01:29:54;;;;;;;5.70;3.88;;;;;;;17.76;89.88;93264.59;5132095;27;20130;-75
2022/07/22 01:32:22;;;;;;;7.18;4.05;;;;;;;17.75;90.05;93268.25;5132764;27;20098;-76
2022/07/22 01:34:49;;;;;;;8.80;4.03;;;;;;;17.69;90.59;93275.22;5133009;27;20047;-75
2022/07/22 01:37:17;;;;;;;6.85;3.80;;;;;;;17.64;90.27;93275.22;5132697;27;20491;-76
2022/07/22 01:39:43;;;;;;;8.27;4.32;;;;;;;17.58;90.59;93271.78;5132560;27;20059;-76
2022/07/22 01:42:10;;;;;;;8.73;4.18;;;;;;;17.48;91.22;93269.94;5132745;27;20092;-76
2022/07/22 01:44:37;;;;;;;8.35;3.85;;;;;;;17.57;90.01;93269.44;5133093;27;20108;-76
2022/07/22 01:47:04;;;;;;;6.05;4.22;;;;;;;17.52;91.11;93274.59;5132537;27;20843;-78
2022/07/22 01:49:31;;;;;;;6.28;4.00;;;;;;;17.43;89.99;93264.69;5133065;27;20049;-78
2022/07/22 01:51:58;;;;;;;7.82;3.90;;;;;;;17.55;90.34;93281.91;5132599;27;20100;-78
2022/07/22 01:54:26;;;;;;;5.72;3.60;;;;;;;17.47;90.35;93276.16;5132763;27;20051;-78
2022/07/22 01:56:53;;;;;;;5.85;3.83;;;;;;;17.49;90.06;93281.06;5132715;27;20047;-77
2022/07/22 01:59:19;;;;;;;8.15;4.05;;;;;;;17.40;90.51;93285.19;5132321;27;20499;-78
2022/07/22 02:01:46;;;;;;;6.32;3.83;;;;;;;17.34;90.79;93285.16;5132762;27;20108;-78
2022/07/22 02:04:13;;;;;;;8.07;4.18;;;;;;;17.27;90.84;93276.78;5132898;27;20535;-78
2022/07/22 02:06:40;;;;;;;7.32;4.03;;;;;;;17.25;92.24;93283.28;5132268;27;20085;-77
2022/07/22 02:09:07;;;;;;;7.50;4.60;;;;;;;17.17;92.36;93285.28;5131983;27;20051;-77
2022/07/22 02:11:35;;;;;;;9.55;3.97;;;;;;;17.18;92.57;93283.50;5132346;27;20413;-77
2022/07/22 02:14:02;;;;;;;4.95;3.67;;;;;;;17.19;92.60;93290.25;5131921;27;20468;-77
2022/07/22 02:16:29;;;;;;;5.75;4.55;;;;;;;17.14;93.51;93285.81;5132282;27;20421;-77
2022/07/22 02:18:56;;;;;;;5.43;4.05;;;;;;;17.12;94.09;93287.06;5132272;27;20094;-77
2022/07/22 02:21:22;;;;;;;6.70;4.30;;;;;;;17.14;93.99;93285.00;5132025;27;20104;-77
2022/07/22 02:23:49;;;;;;;5.93;4.13;;;;;;;17.15;94.22;93286.56;5132137;27;20051;-76
2022/07/22 02:26:16;;;;;;;6.00;3.97;;;;;;;17.16;94.70;93295.91;5131716;27;20048;-76
2022/07/22 02:28:44;;;;;;;8.68;4.30;;;;;;;17.12;95.71;93287.06;5131747;27;20063;-76
2022/07/22 02:31:11;;;;;;;6.18;4.45;;;;;;;17.12;94.21;93284.47;5131546;27;20092;-77
2022/07/22 02:33:38;;;;;;;8.98;4.40;;;;;;;17.19;94.24;93290.25;5131633;27;20491;-76
2022/07/22 02:36:05;;;;;;;8.00;4.45;;;;;;;17.15;93.80;93286.56;5131652;27;20043;-76
2022/07/22 02:38:32;;;;;;;9.00;4.90;;;;;;;17.07;95.23;93295.59;5131729;27;20088;-76
2022/07/22 02:40:59;;;;;;;11.57;4.50;;;;;;;16.78;95.97;93256.94;5131789;27;20047;-76
2022/07/22 02:43:26;;;;;;;8.50;4.82;;;;;;;16.88;96.18;93292.56;5131561;27;20047;-76
2022/07/22 02:45:54;;;;;;;9.90;4.70;;;;;;;16.92;95.46;93286.63;5131472;27;20043;-75
2022/07/22 02:48:21;;;;;;;5.60;4.20;;;;;;;16.97;95.91;93293.69;5131385;27;20088;-76
2022/07/22 02:50:48;;;;;;;11.77;4.35;;;;;;;17.00;94.77;93289.81;5130776;27;20479;-75
2022/07/22 02:53:15;;;;;;;9.00;4.47;;;;;;;16.84;94.47;93274.09;5131275;27;20051;-76
2022/07/22 02:55:42;;;;;;;9.15;4.50;;;;;;;16.89;93.54;93276.75;5131405;27;20088;-76
2022/07/22 02:58:09;;;;;;;7.82;4.07;;;;;;;16.92;92.70;93278.84;5131330;27;20088;-76
2022/07/22 03:00:37;;;;;;;6.25;4.22;;;;;;;17.00;92.48;93293.19;5131230;27;20047;-76
2022/07/22 03:03:06;;;;;;;12.75;4.80;;;;;;;16.85;93.68;93288.63;5131026;27;20682;-76
2022/07/22 03:05:32;;;;;;;6.30;4.47;;;;;;;16.77;94.09;93289.91;5131324;27;20049;-76
2022/07/22 03:07:59;;;;;;;7.22;4.50;;;;;;;16.78;93.89;93295.84;5131084;27;20051;-76
2022/07/22 03:10:26;;;;;;;6.85;4.40;;;;;;;16.74;94.50;93284.38;5130976;27;20047;-76
2022/07/22 03:12:53;;;;;;;10.75;4.78;;;;;;;16.73;95.25;93291.41;5130757;27;20039;-76
2022/07/22 03:15:20;;;;;;;10.00;5.45;;;;;;;16.66;95.99;93288.25;5131100;27;20051;-76
2022/07/22 03:17:46;;;;;;;8.55;5.35;;;;;;;16.67;95.25;93298.34;5130799;27;20448;-75
2022/07/22 03:20:15;;;;;;;6.80;4.65;;;;;;;16.65;95.25;93295.22;5130613;27;20096;-76
2022/07/22 03:22:41;;;;;;;11.02;5.20;;;;;;;16.69;95.67;93293.72;5130658;27;20072;-78
2022/07/22 03:25:09;;;;;;;15.20;5.88;;;;;;;16.64;95.48;93295.47;5130883;27;20099;-76
2022/07/22 03:27:35;;;;;;;8.77;5.13;;;;;;;16.66;96.01;93294.19;5130502;27;20046;-76
2022/07/22 03:30:02;;;;;;;12.30;5.80;;;;;;;16.63;95.59;93286.13;5130750;27;20036;-76
2022/07/22 03:32:29;;;;;;;11.95;5.70;;;;;;;16.65;95.52;93295.22;5130932;27;20050;-76
2022/07/22 03:34:56;;;;;;;13.10;6.43;;;;;;;16.74;95.19;93305.13;5130749;27;20088;-76
2022/07/22 03:37:24;;;;;;;8.20;4.78;;;;;;;16.68;95.51;93304.31;5130794;27;20410;-76
2022/07/22 03:39:51;;;;;;;8.18;5.15;;;;;;;16.64;95.47;93298.84;5130428;27;20043;-76
2022/07/22 03:42:17;;;;;;;10.82;5.45;;;;;;;16.64;95.98;93309.22;5130393;27;20654;-75
2022/07/22 03:44:44;;;;;;;6.82;5.38;;;;;;;16.67;96.00;93311.31;5130561;27;20527;-75
2022/07/22 03:47:11;;;;;;;8.05;5.15;;;;;;;16.72;95.34;93312.38;5127117;27;20519;-75
2022/07/22 03:49:38;;;;;;;8.13;4.88;;;;;;;16.74;94.34;93315.50;5130557;27;20039;-76
2022/07/22 03:52:05;;;;;;;10.55;4.45;;;;;;;16.74;93.89;93311.13;5115651;27;20453;-76
2022/07/22 03:54:33;;;;;;;10.80;4.75;;;;;;;16.64;95.61;93305.84;5130274;27;20035;-76
2022/07/22 03:57:00;;;;;;;11.60;4.97;;;;;;;16.67;95.23;93310.53;5113735;27;20096;-76
2022/07/22 03:59:26;;;;;;;12.30;4.90;;;;;;;16.73;94.91;93319.94;5126467;27;20095;-76
2022/07/22 04:01:54;;;;;;;8.18;4.63;;;;;;;16.74;95.00;93318.91;5114357;27;20097;-76
2022/07/22 04:04:20;;;;;;;7.70;4.63;;;;;;;16.65;95.08;93305.59;5108842;28;20150;-76
2022/07/22 04:06:47;;;;;;;9.88;5.47;;;;;;;16.75;95.59;93322.28;5108948;28;20043;-76
2022/07/22 04:09:14;;;;;;;9.75;5.40;;;;;;;16.68;95.47;93312.09;5124418;27;20054;-76
2022/07/22 04:11:42;;;;;;;10.35;4.93;;;;;;;16.81;95.80;93322.06;5112257;28;20040;-76
2022/07/22 04:14:09;;;;;;;7.95;5.63;;;;;;;16.89;95.68;93320.09;5109330;28;20178;-75
2022/07/22 04:16:36;;;;;;;10.13;5.47;;;;;;;16.90;95.86;93316.44;5109096;28;20047;-75
2022/07/22 04:19:02;;;;;;;15.23;6.22;;;;;;;16.99;95.49;93314.97;5120000;27;20047;-75
2022/07/22 04:21:29;;;;;;;9.27;5.18;;;;;;;17.04;95.25;93319.47;5129187;28;20103;-75
2022/07/22 04:23:56;;;;;;;8.55;5.90;;;;;;;17.09;95.15;93309.88;5129881;28;20108;-75
2022/07/22 04:26:23;;;;;;;10.15;5.53;;;;;;;17.08;95.08;93294.59;5129855;28;20047;-75
2022/07/22 04:28:51;;;;;;;12.65;5.88;;;;;;;17.28;93.93;93322.50;5129812;28;20502;-75
2022/07/22 04:31:18;;;;;;;13.85;5.65;;;;;;;17.37;94.72;93320.22;5130062;28;20051;-76
2022/07/22 04:33:44;;;;;;;10.30;6.00;;;;;;;17.46;94.48;93325.75;5129772;28;20454;-76
2022/07/22 04:36:11;;;;;;;8.85;5.50;;;;;;;17.46;94.58;93317.94;5129617;28;20076;-76
2022/07/22 04:38:38;;;;;;;11.95;6.75;;;;;;;17.54;94.33;93329.69;5129534;27;20543;-77
2022/07/22 04:41:05;;;;;;;15.32;6.13;;;;;;;17.52;92.61;93311.75;5130055;28;20074;-77
2022/07/22 04:43:32;;;;;;;13.45;5.50;;;;;;;17.70;91.09;93328.75;5129923;28;20104;-77
2022/07/22 04:46:00;;;;;;;11.15;5.60;;;;;;;17.72;93.26;93325.88;5129725;28;20092;-77
2022/07/22 04:48:27;;;;;;;13.27;6.43;;;;;;;17.82;91.34;93325.94;5129571;28;20047;-77
2022/07/22 04:50:54;;;;;;;12.68;6.32;;;;;;;17.92;90.42;93327.03;5125201;28;20453;-77
2022/07/22 04:53:20;;;;;;;13.65;6.65;;;;;;;17.99;93.49;93327.59;5109259;28;20040;-77
2022/07/22 04:55:47;;;;;;;14.13;6.75;;;;;;;18.06;93.66;93323.00;5112191;28;20452;-77
2022/07/22 04:58:14;;;;;;;10.15;5.85;;;;;;;18.11;91.34;93317.81;5130029;28;20051;-77
2022/07/22 05:00:40;;;;;;;11.23;5.78;;;;;;;18.25;89.63;93332.94;5129943;28;20051;-77
2022/07/22 05:03:09;;;;;;;11.68;5.43;;;;;;;18.40;89.22;93322.59;5129548;28;20043;-77
2022/07/22 05:05:36;;;;;;;10.95;6.00;;;;;;;18.51;89.65;93322.63;5129874;28;20047;-77
2022/07/22 05:08:03;;;;;;;12.85;5.72;;;;;;;18.58;89.34;93319.75;5129573;28;20055;-77
2022/07/22 05:10:29;;;;;;;7.10;4.93;;;;;;;18.66;91.34;93325.25;5129984;28;20055;-77
2022/07/22 05:12:56;;;;;;;8.90;5.22;;;;;;;18.68;88.48;93310.19;5129748;28;20550;-77
2022/07/22 05:15:23;;;;;;;9.95;5.13;;;;;;;18.84;93.78;93331.00;5132890;27;20701;-77
2022/07/22 05:17:50;;;;;;;9.43;5.50;;;;;;;18.89;91.45;93327.63;5133376;27;20047;-77
2022/07/22 05:20:18;;;;;;;8.02;4.90;;;;;;;18.98;89.35;93333.13;5133370;27;20088;-78
2022/07/22 05:22:45;;;;;;;7.93;4.90;;;;;;;19.12;89.23;93328.97;5133207;27;20051;-77
2022/07/22 05:25:12;;;;;;;11.77;5.78;;;;;;;19.21;87.33;93329.25;5133389;27;20436;-77
2022/07/22 05:27:38;;;;;;;10.13;5.72;;;;;;;19.36;83.85;93325.88;5133437;27;20078;-77
2022/07/22 05:30:06;;;;;;;15.38;7.32;;;;;;;19.53;86.21;93336.00;5133283;27;20039;-77
2022/07/22 05:32:33;;;;;;;19.55;9.57;;;;;;;19.66;90.04;93334.69;5133704;27;20092;-77
2022/07/22 05:35:00;;;;;;;24.80;11.40;;;;;;;19.76;90.19;93332.06;5133146;27;20567;-77
2022/07/22 05:37:28;;;;;;;32.80;14.40;;;;;;;19.98;85.78;93335.41;5132488;27;20043;-76
2022/07/22 05:39:54;;;;;;;52.15;21.05;;;;;;;20.18;86.15;93334.56;5132674;27;20092;-76
2022/07/22 05:42:21;;;;;;;49.03;20.70;;;;;;;20.33;83.68;93327.75;5132973;27;20095;-77
2022/07/22 05:44:48;;;;;;;48.90;21.60;;;;;;;20.52;84.29;93330.53;5132239;27;20399;-77
2022/07/22 05:47:14;;;;;;;60.60;23.25;;;;;;;20.69;81.76;93332.81;5132769;27;20107;-77
2022/07/22 05:49:41;;;;;;;63.83;26.77;;;;;;;20.92;80.94;93339.19;5132847;27;20043;-77
2022/07/22 05:52:08;;;;;;;58.58;26.90;;;;;;;21.20;81.05;93339.53;5114765;27;20047;-76
2022/07/22 05:54:36;;;;;;;56.95;24.67;;;;;;;21.43;77.16;93337.25;5132444;27;20096;-76
2022/07/22 05:57:03;;;;;;;52.92;24.08;;;;;;;21.67;76.03;93328.72;5132450;27;20174;-76
2022/07/22 05:59:30;;;;;;;54.83;22.60;;;;;;;21.96;77.14;93332.34;5132224;27;20043;-76
2022/07/22 06:01:56;;;;;;;49.17;22.33;;;;;;;22.25;74.69;93334.13;5132565;27;20100;-76
2022/07/22 06:04:23;;;;;;;47.75;21.63;;;;;;;22.54;73.08;93326.22;5132433;27;20050;-76
2022/07/22 06:06:50;;;;;;;38.85;18.65;;;;;;;22.85;71.35;93325.03;5126908;27;20568;-76
2022/07/22 06:09:17;;;;;;;42.38;19.40;;;;;;;23.16;69.86;93327.19;5120175;27;20043;-76
2022/07/22 06:11:46;;;;;;;43.80;18.85;;;;;;;23.49;68.17;93323.81;5131951;27;20062;-76
2022/07/22 06:14:12;;;;;;;39.83;18.13;;;;;;;23.84;67.66;93321.63;5131921;27;20548;-76
2022/07/22 06:16:39;;;;;;;33.25;14.27;;;;;;;24.02;66.01;93327.09;5132258;27;20407;-76
2022/07/22 06:19:06;;;;;;;27.55;12.73;;;;;;;24.19;62.66;93323.13;5131917;27;20100;-77
2022/07/22 06:21:33;;;;;;;32.30;14.07;;;;;;;24.53;63.34;93321.94;5132212;27;20058;-77
2022/07/22 06:23:59;;;;;;;31.90;13.32;;;;;;;24.84;63.37;93323.19;5132053;27;20039;-77
2022/07/22 06:26:26;;;;;;;19.25;9.05;;;;;;;25.15;60.13;93320.63;5130867;27;20155;-78
2022/07/22 06:28:54;;;;;;;13.65;5.93;;;;;;;25.05;57.00;93321.63;5131635;27;20043;-78
2022/07/22 06:31:21;;;;;;;12.65;5.22;;;;;;;25.29;58.50;93323.19;5131675;27;20464;-77
2022/07/22 06:33:48;;;;;;;12.90;6.18;;;;;;;25.18;55.34;93324.50;5116894;27;20092;-78
2022/07/22 06:36:15;;;;;;;19.17;7.60;;;;;;;25.49;55.54;93329.03;5131839;27;20047;-77
2022/07/22 06:38:41;;;;;;;16.27;7.40;;;;;;;25.69;53.36;93333.03;5131732;27;20441;-78
2022/07/22 06:41:08;;;;;;;13.85;7.35;;;;;;;26.12;51.96;93323.00;5131535;27;20092;-77
2022/07/22 06:43:35;;;;;;;15.13;6.80;;;;;;;26.63;50.76;93334.00;5119742;27;20047;-78
2022/07/22 06:46:03;;;;;;;15.20;6.45;;;;;;;27.05;47.56;93332.78;5115333;27;20426;-78
2022/07/22 06:48:30;;;;;;;21.10;7.65;;;;;;;27.26;46.15;93327.66;5130328;27;20039;-78
2022/07/22 06:50:57;;;;;;;14.70;6.65;;;;;;;27.34;45.82;93328.72;5131303;27;20190;-78
2022/07/22 06:53:24;;;;;;;16.27;5.68;;;;;;;27.17;45.62;93327.66;5131083;27;20491;-79
2022/07/22 06:55:51;;;;;;;12.02;4.82;;;;;;;27.50;43.29;93326.38;5131599;27;20039;-78
2022/07/22 06:58:17;;;;;;;11.88;3.85;;;;;;;27.94;42.00;93325.50;5130319;27;20047;-78
2022/07/22 07:00:44;;;;;;;13.70;3.92;;;;;;;28.45;43.37;93330.13;5131079;27;20104;-78
2022/07/22 07:03:13;;;;;;;12.05;3.92;;;;;;;28.89;42.14;93324.56;5131448;27;20047;-78
2022/07/22 07:05:44;;;;;;;20.63;4.72;;;;;;;29.38;40.98;93325.88;5116328;27;20040;-78
2022/07/22 07:08:20;;;;;;;10.48;3.88;;;;;;;29.63;39.97;93328.59;5118652;27;20444;-78
2022/07/22 07:10:48;;;;;;;;;;;;;;;28.98;40.75;93327.13;5118599;27;20074;-79
2022/07/22 07:13:15;;;;;;;11.25;3.60;;;;;;;29.23;41.28;93333.31;5129042;27;19923;-79
2022/07/22 07:15:42;;;;;;;12.90;5.15;;;;;;;29.62;40.51;93333.09;5131786;27;20039;-78
2022/07/22 07:18:10;;;;;;;15.23;4.38;;;;;;;29.65;40.25;93329.03;5131826;27;20043;-78
2022/07/22 07:20:40;;;;;;;12.07;4.03;;;;;;;29.65;37.92;93327.16;5132229;27;20470;-78
2022/07/22 07:23:08;;;;;;;12.23;4.22;;;;;;;29.91;40.34;93323.47;5130347;27;20082;-78
2022/07/22 07:25:35;;;;;;;15.43;4.70;;;;;;;29.12;38.99;93330.28;5131384;27;20055;-78
2022/07/22 07:28:02;;;;;;;11.07;4.00;;;;;;;28.73;41.51;93327.75;5130141;27;20047;-78
2022/07/22 07:30:29;;;;;;;15.57;4.88;;;;;;;29.04;41.18;93331.13;5126459;27;20062;-77
2022/07/22 07:32:56;;;;;;;10.00;3.65;;;;;;;29.32;39.77;93326.06;5131660;27;20046;-78
2022/07/22 07:35:23;;;;;;;11.13;4.72;;;;;;;29.44;39.64;93335.16;5132599;27;20057;-78
2022/07/22 07:37:52;;;;;;;8.52;3.65;;;;;;;29.63;39.42;93341.84;5131847;27;20039;-77
2022/07/22 07:40:19;;;;;;;8.77;3.40;;;;;;;29.25;38.43;93338.28;5131762;27;20505;-78
2022/07/22 07:42:46;;;;;;;7.55;3.40;;;;;;;29.70;38.88;93336.75;5132675;27;20111;-78
2022/07/22 07:45:13;;;;;;;11.55;3.60;;;;;;;30.17;37.82;93340.94;5130856;27;20050;-78
2022/07/22 07:47:40;;;;;;;10.13;3.35;;;;;;;30.75;37.48;93337.41;5130366;27;20520;-78
2022/07/22 07:50:08;;;;;;;7.47;3.67;;;;;;;30.65;35.37;93337.81;5130242;27;20092;-78
2022/07/22 07:52:38;;;;;;;8.57;3.05;;;;;;;30.44;36.58;93343.25;5129047;27;20055;-78
2022/07/22 07:55:08;;;;;;;7.30;3.30;;;;;;;29.87;37.23;93341.91;5129221;27;20043;-78
2022/07/22 07:57:34;;;;;;;8.30;3.22;;;;;;;30.11;38.25;93343.03;5130134;27;20392;-78
2022/07/22 08:00:01;;;;;;;6.35;3.42;;;;;;;30.15;38.17;93340.50;5130353;27;20039;-77
2022/07/22 08:02:28;;;;;;;15.73;4.68;;;;;;;30.18;37.34;93339.84;5129433;27;20042;-78
2022/07/22 08:04:55;;;;;;;6.00;2.90;;;;;;;30.42;36.68;93342.81;5130271;27;20120;-78
2022/07/22 08:07:22;;;;;;;9.93;3.13;;;;;;;31.09;36.87;93333.78;5130066;27;20047;-78
2022/07/22 08:09:48;;;;;;;8.07;3.38;;;;;;;30.99;36.44;93342.94;5129588;27;20764;-78
2022/07/22 08:12:16;;;;;;;5.28;2.70;;;;;;;31.53;35.41;93333.03;5129688;27;20039;-78
2022/07/22 08:14:43;;;;;;;3.83;2.55;;;;;;;31.07;36.25;93342.81;5125804;27;20043;-78
2022/07/22 08:17:10;;;;;;;4.43;2.58;;;;;;;30.78;35.75;93328.75;5129952;28;20437;-78
2022/07/22 08:19:37;;;;;;;4.22;2.60;;;;;;;30.70;36.17;93342.91;5129864;28;20528;-78
2022/07/22 08:22:04;;;;;;;6.97;2.78;;;;;;;30.60;35.56;93327.44;5130022;28;20047;-78
2022/07/22 08:24:30;;;;;;;8.25;2.55;;;;;;;30.51;36.67;93343.47;5129843;28;20084;-78
2022/07/22 08:26:57;;;;;;;4.95;2.40;;;;;;;30.95;36.15;93326.19;5121445;28;20100;-78
2022/07/22 08:29:25;;;;;;;5.53;2.45;;;;;;;30.49;34.94;93343.00;5129986;28;20621;-78
2022/07/22 08:31:52;;;;;;;5.82;2.30;;;;;;;30.93;34.89;93340.53;5130218;28;20048;-78
2022/07/22 08:34:19;;;;;;;3.83;2.30;;;;;;;30.14;34.08;93342.38;5115650;28;20047;-77
2022/07/22 08:36:46;;;;;;;10.95;3.20;;;;;;;30.08;34.80;93346.31;5129736;28;20057;-78
2022/07/22 08:39:13;;;;;;;5.35;2.40;;;;;;;29.96;34.37;93341.00;5129636;27;20088;-79
2022/07/22 08:41:40;;;;;;;4.05;2.00;;;;;;;30.11;35.24;93323.72;5129905;28;20051;-79
2022/07/22 08:44:09;;;;;;;8.40;2.50;;;;;;;29.81;34.39;93348.47;5126904;28;20054;-78
2022/07/22 08:46:38;;;;;;;5.00;2.40;;;;;;;29.90;35.39;93321.16;5119194;28;20091;-79
2022/07/22 08:49:06;;;;;;;6.05;2.10;;;;;;;30.27;34.32;93337.09;5129896;27;20108;-80
2022/07/22 08:51:34;;;;;;;5.35;2.15;;;;;;;30.47;35.28;93348.66;5133452;27;20043;-79
2022/07/22 08:54:00;;;;;;;5.70;2.33;;;;;;;29.63;35.49;93349.78;5134001;27;20096;-79
2022/07/22 08:56:27;;;;;;;10.25;2.78;;;;;;;29.52;35.20;93352.06;5133448;27;20051;-78
2022/07/22 08:58:54;;;;;;;8.25;2.85;;;;;;;30.14;35.71;93346.91;5133546;27;20092;-78
2022/07/22 09:01:21;;;;;;;5.35;2.70;;;;;;;29.92;34.58;93327.66;5133368;27;20051;-78
2022/07/22 09:03:51;;;;;;;4.35;2.40;;;;;;;30.23;34.53;93352.09;5129958;27;20528;-79
2022/07/22 09:06:20;;;;;;;6.25;3.25;;;;;;;30.36;34.17;93350.97;5123415;27;20514;-78
2022/07/22 09:08:55;;;;;;;3.72;2.17;;;;;;;30.18;35.49;93336.41;5123827;27;20098;-79
2022/07/22 09:11:24;;;;;;;4.32;2.33;;;;;;;30.43;35.57;93339.06;5117466;27;20105;-78
2022/07/22 09:13:53;;;;;;;7.25;2.63;;;;;;;30.87;34.75;93347.19;5123449;27;20047;-79
2022/07/22 09:16:41;;;;;;;6.60;2.50;;;;;;;30.33;35.11;93356.16;5123539;27;20096;-79
2022/07/22 09:19:09;;;;;;;5.32;2.70;;;;;;;30.61;34.98;93368.75;5120903;27;20559;-78
2022/07/22 09:21:38;;;;;;;6.40;2.50;;;;;;;30.87;35.20;93360.44;5121046;27;20043;-79
2022/07/22 09:24:06;;;;;;;5.78;2.30;;;;;;;30.96;34.70;93351.59;5123341;27;20047;-78
2022/07/22 09:26:34;;;;;;;6.72;2.70;;;;;;;31.38;34.40;93361.84;5133333;27;20452;-78
2022/07/22 09:29:01;;;;;;;4.15;2.55;;;;;;;31.65;33.77;93351.56;5133328;27;20104;-78
2022/07/22 09:31:30;;;;;;;5.40;2.22;;;;;;;31.91;34.36;93353.00;5132997;27;20103;-78
2022/07/22 09:33:57;;;;;;;4.13;2.50;;;;;;;31.43;34.55;93351.00;5133257;27;20052;-78
2022/07/22 09:36:27;;;;;;;6.20;2.53;;;;;;;32.36;33.97;93339.59;5133164;27;20047;-78
2022/07/22 09:38:54;;;;;;;5.35;2.47;;;;;;;32.45;32.88;93344.75;5132862;27;20103;-79
2022/07/22 09:41:21;;;;;;;5.20;2.40;;;;;;;32.22;33.01;93340.06;5132668;27;20094;-78
2022/07/22 09:43:48;;;;;;;3.40;2.10;;;;;;;32.28;32.81;93351.19;5132717;27;20051;-78
2022/07/22 09:46:14;;;;;;;6.10;2.95;;;;;;;31.80;33.50;93360.66;5126734;27;20083;-78
2022/07/22 09:48:42;;;;;;;4.60;2.58;;;;;;;32.27;32.52;93339.78;5117038;27;20055;-78
2022/07/22 09:51:09;;;;;;;4.53;2.63;;;;;;;33.01;32.68;93349.03;5118272;27;20040;-79
2022/07/22 09:53:37;;;;;;;6.85;2.60;;;;;;;33.27;33.14;93339.63;5127208;27;20043;-78
2022/07/22 09:56:06;;;;;;;5.72;2.50;;;;;;;32.17;32.39;93342.97;5132309;27;20047;-78
2022/07/22 09:58:33;;;;;;;4.40;2.47;;;;;;;31.70;32.00;93340.69;5132790;27;20047;-78
2022/07/22 10:01:04;;;;;;;6.28;2.75;;;;;;;31.71;31.87;93334.25;5132549;27;20043;-79
2022/07/22 10:03:33;;;;;;;7.75;2.97;;;;;;;31.92;32.43;93346.56;5132274;27;20051;-78
2022/07/22 10:06:02;;;;;;;4.78;3.00;;;;;;;31.98;32.28;93342.53;5132201;27;20093;-78
2022/07/22 10:08:31;;;;;;;5.28;2.80;;;;;;;32.21;31.72;93333.19;5131998;27;20547;-78
2022/07/22 10:11:04;;;;;;;5.45;2.88;;;;;;;32.42;30.55;93346.22;5118085;27;20047;-79
2022/07/22 10:13:31;;;;;;;6.53;2.60;;;;;;;32.66;31.40;93337.25;5132149;27;20047;-78
2022/07/22 10:15:59;;;;;;;4.07;2.70;;;;;;;32.93;30.92;93326.78;5132131;27;20079;-80
2022/07/22 10:18:28;;;;;;;4.30;2.60;;;;;;;33.05;30.80;93338.44;5131736;27;20091;-79
2022/07/22 10:21:05;;;;;;;5.30;2.80;;;;;;;32.52;31.64;93334.28;5132272;27;20039;-79
2022/07/22 10:23:32;;;;;;;5.85;2.50;;;;;;;32.82;31.12;93328.47;5132155;27;20104;-79
2022/07/22 10:26:02;;;;;;;5.15;2.75;;;;;;;32.48;31.09;93326.22;5131596;27;20047;-79
2022/07/22 10:28:30;;;;;;;7.63;3.13;;;;;;;33.12;30.85;93333.25;5131572;27;20498;-79
2022/07/22 10:31:18;;;;;;;7.60;2.72;;;;;;;33.08;30.92;93319.09;5132033;27;20055;-79
2022/07/22 10:33:46;;;;;;;5.97;3.00;;;;;;;33.09;30.73;93327.88;5131879;27;20047;-79
2022/07/22 10:36:13;;;;;;;3.85;2.67;;;;;;;31.75;31.89;93329.06;5131796;27;20043;-77
2022/07/22 10:39:04;;;;;;;4.10;2.58;;;;;;;32.37;32.34;93317.22;5131588;27;20051;-80
2022/07/22 10:41:37;;;;;;;8.45;2.85;;;;;;;32.23;31.45;93323.00;5131718;27;20130;-78
2022/07/22 10:44:04;;;;;;;4.70;2.90;;;;;;;31.85;31.97;93333.88;5131341;27;20562;-77
2022/07/22 10:46:49;;;;;;;6.63;2.45;;;;;;;31.89;31.68;93330.53;5131352;27;20179;-78
2022/07/22 10:49:17;;;;;;;5.05;2.67;;;;;;;32.12;30.04;93323.50;5131419;27;20041;-78
2022/07/22 10:52:09;;;;;;;7.35;2.35;;;;;;;32.24;30.40;93324.53;5131593;27;20043;-79
2022/07/22 10:55:09;;;;;;;7.57;2.50;;;;;;;32.69;30.91;93322.50;5131583;27;20035;-79
2022/07/22 10:57:38;;;;;;;4.80;2.00;;;;;;;32.49;30.12;93319.78;5131546;27;20559;-78
2022/07/22 11:00:06;;;;;;;3.80;2.38;;;;;;;32.58;30.41;93318.84;5131274;27;20093;-78
2022/07/22 11:02:34;;;;;;;7.25;2.55;;;;;;;32.11;30.72;93326.50;5131141;27;20054;-79
2022/07/22 11:05:01;;;;;;;6.25;2.67;;;;;;;31.38;30.94;93330.00;5131450;27;20560;-78
2022/07/22 11:07:30;;;;;;;4.15;2.47;;;;;;;31.67;30.97;93319.38;5131239;27;20115;-79
2022/07/22 11:10:10;;;;;;;4.72;2.20;;;;;;;31.97;31.05;93319.75;5131152;27;20149;-78
2022/07/22 11:12:38;;;;;;;5.93;2.30;;;;;;;32.32;30.93;93314.81;5130184;27;20509;-79
2022/07/22 11:15:07;;;;;;;4.30;2.90;;;;;;;32.25;32.20;93316.22;5131053;27;20051;-77
2022/07/22 11:17:35;;;;;;;5.38;2.83;;;;;;;32.26;31.07;93309.03;5131005;27;20134;-78
2022/07/22 11:20:02;;;;;;;5.72;2.75;;;;;;;32.60;29.95;93316.59;5131071;27;20187;-79
2022/07/22 11:22:29;;;;;;;11.75;3.20;;;;;;;32.30;30.86;93320.47;5130798;27;20514;-79
2022/07/22 11:24:57;;;;;;;5.03;2.28;;;;;;;31.98;29.96;93331.91;5130941;27;20051;-79
2022/07/22 11:27:24;;;;;;;6.63;3.10;;;;;;;32.11;31.08;93313.22;5130626;27;20551;-79
2022/07/22 11:29:54;;;;;;;7.18;2.40;;;;;;;32.48;31.05;93322.81;5130820;27;20046;-79
2022/07/22 11:32:24;;;;;;;6.28;2.60;;;;;;;32.19;30.32;93314.94;5130886;27;20047;-78